Time;durP1;ratioP1;P1;durP2;ratioP2;P2;SDS_P1;SDS_P2;PMS_P1;PMS_P2;Temp;Humidity;BMP_temperature;BMP_pressure;BME280_temperature;BME280_humidity;BME280_pressure;Samples;Min_cycle;Max_cycle;Signal;HPM_P1;HPM_P2
2023/06/21 00:01:34;;;;;;;17.60;15.75;;;23.20;1.00;;;;;;5098590;28;20203;-90
2023/06/21 00:04:01;;;;;;;18.33;15.35;;;23.10;1.00;;;;;;5082611;28;20196;-91
2023/06/21 00:06:29;;;;;;;17.20;15.52;;;23.10;1.00;;;;;;5083300;28;20188;-91
2023/06/21 00:08:56;;;;;;;17.60;15.75;;;23.00;1.00;;;;;;5103332;28;20187;-90
2023/06/21 00:11:23;;;;;;;17.35;15.43;;;23.00;1.00;;;;;;5095641;28;20200;-90
2023/06/21 00:13:52;;;;;;;15.73;14.13;;;23.00;1.00;;;;;;5095138;28;20679;-90
2023/06/21 00:16:19;;;;;;;16.88;15.20;;;22.90;1.00;;;;;;5097792;28;20283;-90
2023/06/21 00:18:48;;;;;;;16.67;15.00;;;22.90;1.00;;;;;;5100538;28;20219;-90
2023/06/21 00:21:15;;;;;;;16.45;14.75;;;22.90;1.00;;;;;;5089213;28;20228;-90
2023/06/21 00:23:43;;;;;;;18.05;14.60;;;22.90;1.00;;;;;;5093106;28;20190;-90
2023/06/21 00:26:10;;;;;;;16.05;14.35;;;22.90;1.00;;;;;;5089756;28;20244;-90
2023/06/21 00:28:37;;;;;;;16.23;14.63;;;22.90;1.00;;;;;;5079298;28;20201;-91
2023/06/21 00:31:08;;;;;;;15.77;14.20;;;22.90;1.00;;;;;;5096278;28;20247;-90
2023/06/21 00:33:35;;;;;;;17.30;15.05;;;22.90;1.00;;;;;;5097532;28;20226;-91
2023/06/21 00:36:03;;;;;;;17.52;15.73;;;22.90;1.00;;;;;;5101641;28;20218;-90
2023/06/21 00:38:34;;;;;;;16.60;15.00;;;22.80;1.00;;;;;;5098355;28;20252;-90
2023/06/21 00:41:04;;;;;;;16.52;14.93;;;22.80;1.00;;;;;;5094069;28;20705;-90
2023/06/21 00:43:31;;;;;;;16.83;15.10;;;22.80;1.00;;;;;;5089183;28;20224;-89
2023/06/21 00:45:58;;;;;;;16.02;14.48;;;22.80;99.90;;;;;;5095175;28;20202;-91
2023/06/21 00:48:28;;;;;;;16.30;14.68;;;22.80;99.90;;;;;;5080580;28;20248;-90
2023/06/21 00:50:55;;;;;;;16.40;14.80;;;22.70;99.90;;;;;;5092999;28;20282;-90
2023/06/21 00:53:26;;;;;;;17.85;14.65;;;22.70;99.90;;;;;;5096318;28;20701;-90
2023/06/21 00:55:53;;;;;;;16.42;14.73;;;22.70;99.90;;;;;;5082723;28;20576;-89
2023/06/21 00:58:21;;;;;;;15.27;13.68;;;22.60;99.90;;;;;;5097278;28;20245;-90
2023/06/21 01:00:49;;;;;;;15.90;14.30;;;22.60;99.90;;;;;;5094146;28;20195;-90
2023/06/21 01:03:17;;;;;;;14.98;13.43;;;22.60;99.90;;;;;;5083499;28;20259;-90
2023/06/21 01:05:52;;;;;;;15.13;13.52;;;22.60;97.90;;;;;;5099374;28;20234;-90
2023/06/21 01:08:31;;;;;;;16.65;13.70;;;22.70;41.80;;;;;;5094282;28;20191;-91
2023/06/21 01:11:06;;;;;;;16.00;14.32;;;22.60;1.00;;;;;;5076314;28;20204;-90
2023/06/21 01:13:43;;;;;;;16.15;13.65;;;22.60;1.00;;;;;;5097749;28;20644;-89
2023/06/21 01:16:15;;;;;;;16.13;14.52;;;22.60;1.00;;;;;;5088778;28;20726;-91
2023/06/21 01:18:45;;;;;;;15.95;14.35;;;22.60;1.00;;;;;;5094914;28;20649;-90
2023/06/21 01:21:16;;;;;;;15.63;14.10;;;22.60;1.00;;;;;;5094709;28;20231;-89
2023/06/21 01:24:00;;;;;;;15.13;13.65;;;22.60;1.00;;;;;;5095126;28;20191;-90
2023/06/21 01:26:46;;;;;;;16.38;14.68;;;22.50;1.00;;;;;;5093673;28;20260;-89
2023/06/21 01:29:17;;;;;;;16.05;14.13;;;22.50;1.00;;;;;;5081165;28;20625;-89
2023/06/21 01:31:45;;;;;;;16.08;14.50;;;22.50;1.00;;;;;;5093597;28;20202;-89
2023/06/21 01:34:14;;;;;;;17.70;14.65;;;22.50;1.00;;;;;;5089636;28;20270;-90
2023/06/21 01:36:41;;;;;;;15.90;14.20;;;22.50;1.00;;;;;;5098030;28;20204;-90
2023/06/21 01:39:09;;;;;;;15.50;14.02;;;22.50;1.00;;;;;;5097450;28;20664;-90
2023/06/21 01:41:36;;;;;;;16.58;14.45;;;22.50;1.00;;;;;;5080644;28;20235;-89
2023/06/21 01:44:04;;;;;;;16.02;14.25;;;22.50;1.00;;;;;;5102044;28;20232;-90
2023/06/21 01:46:32;;;;;;;16.40;14.77;;;22.60;1.00;;;;;;5095472;28;20235;-89
2023/06/21 01:49:00;;;;;;;15.43;13.82;;;22.60;1.00;;;;;;5100529;28;20280;-90
2023/06/21 01:51:28;;;;;;;15.35;13.73;;;22.60;1.00;;;;;;5097852;28;20188;-90
2023/06/21 01:53:57;;;;;;;15.48;13.85;;;22.60;1.00;;;;;;5096665;28;20221;-91
2023/06/21 01:56:26;;;;;;;15.60;13.50;;;22.60;1.00;;;;;;5095366;28;20196;-90
2023/06/21 01:58:53;;;;;;;14.90;13.40;;;22.50;1.00;;;;;;5095760;28;20199;-90
2023/06/21 02:01:20;;;;;;;15.50;13.90;;;22.60;1.00;;;;;;5098342;28;20192;-90
2023/06/21 02:03:54;;;;;;;15.63;14.00;;;22.60;1.00;;;;;;5101186;28;20187;-91
2023/06/21 02:06:24;;;;;;;15.25;13.75;;;22.50;1.00;;;;;;5084949;28;20187;-90
2023/06/21 02:08:52;;;;;;;15.52;13.93;;;22.50;1.00;;;;;;5083446;28;20203;-90
2023/06/21 02:11:21;;;;;;;15.52;13.93;;;22.50;1.00;;;;;;5098466;28;20198;-90
2023/06/21 02:13:48;;;;;;;15.55;13.90;;;22.50;1.00;;;;;;5094757;28;20216;-90
2023/06/21 02:16:15;;;;;;;15.40;13.80;;;22.50;1.00;;;;;;5087308;28;20326;-92
2023/06/21 02:18:42;;;;;;;15.35;13.82;;;22.40;1.00;;;;;;5099580;28;20241;-90
2023/06/21 02:21:11;;;;;;;15.25;13.73;;;22.50;1.00;;;;;;5101267;28;20202;-90
2023/06/21 02:23:38;;;;;;;15.45;13.85;;;22.50;1.00;;;;;;5102353;28;20200;-90
2023/06/21 02:26:05;;;;;;;14.88;13.38;;;22.40;1.00;;;;;;5099473;28;20652;-91
2023/06/21 02:28:32;;;;;;;14.98;13.52;;;22.40;1.00;;;;;;5092107;28;20221;-90
2023/06/21 02:30:59;;;;;;;15.15;13.65;;;22.40;1.00;;;;;;5095500;28;20669;-90
2023/06/21 02:33:26;;;;;;;15.05;13.55;;;22.40;1.00;;;;;;5096302;28;20191;-90
2023/06/21 02:35:53;;;;;;;15.48;13.82;;;22.40;1.00;;;;;;5099682;28;20199;-89
2023/06/21 02:38:21;;;;;;;14.98;13.32;;;22.40;1.00;;;;;;5100166;28;20195;-91
2023/06/21 02:40:49;;;;;;;15.05;12.85;;;22.40;1.00;;;;;;5097335;28;20733;-91
2023/06/21 02:43:16;;;;;;;15.57;13.98;;;22.40;1.00;;;;;;5107621;28;20236;-91
2023/06/21 02:45:43;;;;;;;14.55;12.98;;;22.40;1.00;;;;;;5096347;28;20648;-90
2023/06/21 02:48:10;;;;;;;14.57;13.07;;;22.50;1.00;;;;;;5099501;28;20195;-90
2023/06/21 02:50:37;;;;;;;14.88;13.27;;;22.50;1.00;;;;;;5082642;28;20208;-92
2023/06/21 02:53:04;;;;;;;14.80;13.30;;;22.50;1.00;;;;;;5093259;28;20253;-90
2023/06/21 02:55:32;;;;;;;14.48;12.98;;;22.60;1.00;;;;;;5091878;28;20216;-91
2023/06/21 02:57:59;;;;;;;14.55;13.10;;;22.60;1.00;;;;;;5089752;28;20249;-92
2023/06/21 03:00:28;;;;;;;14.38;12.88;;;22.60;1.00;;;;;;5096389;28;20195;-91
2023/06/21 03:02:59;;;;;;;13.77;12.40;;;22.70;1.00;;;;;;5081404;28;20286;-91
2023/06/21 03:05:27;;;;;;;13.82;12.52;;;22.80;1.00;;;;;;5095200;28;20601;-90
2023/06/21 03:07:54;;;;;;;15.35;13.75;;;22.90;1.00;;;;;;5099500;28;20203;-91
2023/06/21 03:10:21;;;;;;;14.25;12.85;;;22.90;1.00;;;;;;5100362;28;20196;-90
2023/06/21 03:12:50;;;;;;;14.48;12.95;;;23.00;99.90;;;;;;5099339;27;20217;-90
2023/06/21 03:15:17;;;;;;;14.27;12.77;;;23.10;99.90;;;;;;5097914;28;20212;-91
2023/06/21 03:17:44;;;;;;;14.45;13.05;;;23.20;99.90;;;;;;5095654;28;20195;-90
2023/06/21 03:20:13;;;;;;;13.88;12.57;;;23.30;99.90;;;;;;5095710;28;20194;-91
2023/06/21 03:22:41;;;;;;;14.45;12.73;;;23.40;99.90;;;;;;5088405;28;20235;-90
2023/06/21 03:25:09;;;;;;;14.35;12.90;;;23.50;99.90;;;;;;5096531;28;20234;-91
2023/06/21 03:27:36;;;;;;;14.07;12.55;;;23.60;36.00;;;;;;5099002;28;20271;-90
2023/06/21 03:30:06;;;;;;;14.75;12.73;;;23.60;1.00;;;;;;5092942;28;20238;-90
2023/06/21 03:32:33;;;;;;;14.10;12.70;;;23.70;1.00;;;;;;5095960;28;20205;-90
2023/06/21 03:35:00;;;;;;;14.70;13.20;;;23.80;1.00;;;;;;5098300;28;20247;-90
2023/06/21 03:37:28;;;;;;;14.27;12.77;;;23.80;1.00;;;;;;5087210;28;20613;-90
2023/06/21 03:39:56;;;;;;;14.40;12.90;;;23.90;1.00;;;;;;5099683;28;20192;-90
2023/06/21 03:42:23;;;;;;;15.00;13.40;;;24.00;1.00;;;;;;5096550;28;20220;-90
2023/06/21 03:44:50;;;;;;;14.95;13.25;;;24.10;1.00;;;;;;5101166;28;20199;-90
2023/06/21 03:47:18;;;;;;;14.82;13.43;;;24.20;1.00;;;;;;5094892;28;20199;-92
2023/06/21 03:49:45;;;;;;;15.50;13.90;;;24.30;1.00;;;;;;5086420;28;20709;-91
2023/06/21 03:52:12;;;;;;;14.38;12.98;;;24.40;1.00;;;;;;5080946;28;20641;-90
2023/06/21 03:54:39;;;;;;;15.13;13.63;;;24.50;1.00;;;;;;5100402;28;20269;-91
2023/06/21 03:57:06;;;;;;;15.65;14.05;;;24.70;99.90;;;;;;5099296;28;20244;-91
2023/06/21 03:59:33;;;;;;;15.30;13.80;;;24.90;99.90;;;;;;5100978;28;20202;-91
2023/06/21 04:02:00;;;;;;;14.60;13.10;;;25.20;99.90;;;;;;5095598;28;20199;-91
2023/06/21 04:04:28;;;;;;;14.95;13.50;;;25.70;99.90;;;;;;5092894;28;20253;-91
2023/06/21 04:06:55;;;;;;;14.85;13.45;;;26.10;1.00;;;;;;5103023;28;20196;-90
2023/06/21 04:09:23;;;;;;;15.18;13.63;;;26.30;1.00;;;;;;5098236;28;20192;-91
2023/06/21 04:11:50;;;;;;;16.13;14.48;;;26.40;1.00;;;;;;5076103;28;20205;-91
2023/06/21 04:14:18;;;;;;;15.05;13.65;;;26.40;1.00;;;;;;5097142;28;20211;-92
2023/06/21 04:16:45;;;;;;;14.40;13.00;;;26.30;1.00;;;;;;5086376;28;20200;-91
2023/06/21 04:19:12;;;;;;;15.93;14.32;;;26.20;1.00;;;;;;5097535;28;20208;-90
2023/06/21 04:21:41;;;;;;;16.33;14.48;;;26.00;1.00;;;;;;5084155;28;20192;-91
2023/06/21 04:24:08;;;;;;;16.73;14.85;;;25.70;1.00;;;;;;5099135;28;20200;-91
2023/06/21 04:26:35;;;;;;;17.70;15.32;;;25.50;1.00;;;;;;5106540;28;20203;-91
2023/06/21 04:29:02;;;;;;;16.48;14.77;;;25.40;1.00;;;;;;5086138;28;20200;-91
2023/06/21 04:31:29;;;;;;;16.77;15.02;;;25.20;1.00;;;;;;5090822;28;20241;-91
2023/06/21 04:33:56;;;;;;;19.17;15.52;;;25.10;1.00;;;;;;5094594;28;20192;-92
2023/06/21 04:36:24;;;;;;;16.65;14.82;;;25.10;1.00;;;;;;5103042;28;20191;-91
2023/06/21 04:38:53;;;;;;;16.85;15.15;;;25.00;1.00;;;;;;5094136;28;20230;-91
2023/06/21 04:41:20;;;;;;;18.10;16.00;;;25.00;1.00;;;;;;5094459;28;20228;-92
2023/06/21 04:43:47;;;;;;;19.13;15.15;;;25.10;1.00;;;;;;5087568;28;20239;-92
2023/06/21 04:46:21;;;;;;;20.02;16.10;;;25.20;5.90;;;;;;5097445;28;20196;-91
2023/06/21 04:48:48;;;;;;;17.08;15.38;;;25.30;1.00;;;;;;5075370;28;20232;-92
2023/06/21 04:51:15;;;;;;;17.55;15.75;;;25.40;1.00;;;;;;5095096;28;20199;-94
2023/06/21 04:53:42;;;;;;;18.20;15.85;;;25.60;1.00;;;;;;5092710;28;20612;-92
2023/06/21 04:56:12;;;;;;;18.95;15.82;;;25.80;1.00;;;;;;5097162;28;20223;-93
2023/06/21 04:58:39;;;;;;;18.05;15.93;;;26.00;1.00;;;;;;5096837;28;20200;-90
2023/06/21 05:01:06;;;;;;;18.08;15.77;;;26.30;1.00;;;;;;5090118;28;20228;-92
2023/06/21 05:03:34;;;;;;;18.95;15.70;;;26.60;1.00;;;;;;5083193;28;20601;-90
2023/06/21 05:06:01;;;;;;;19.00;15.75;;;26.90;1.00;;;;;;5091559;28;20196;-91
2023/06/21 05:08:28;;;;;;;19.20;15.05;;;27.10;1.00;;;;;;5095283;28;20200;-93
2023/06/21 05:10:55;;;;;;;16.27;14.57;;;27.30;1.00;;;;;;5094907;28;20224;-93
2023/06/21 05:13:23;;;;;;;24.20;21.33;;;27.20;1.00;;;;;;5095109;28;20197;-90
2023/06/21 05:15:50;;;;;;;18.73;16.85;;;27.00;1.00;;;;;;5084789;28;20223;-91
2023/06/21 05:18:17;;;;;;;19.33;16.75;;;26.90;1.00;;;;;;5094975;28;20572;-91
2023/06/21 05:20:44;;;;;;;17.50;15.85;;;26.80;1.00;;;;;;5084364;28;20650;-92
2023/06/21 05:23:11;;;;;;;19.33;17.42;;;26.70;1.00;;;;;;5095274;28;20257;-93
2023/06/21 05:25:38;;;;;;;27.15;16.83;;;26.60;1.00;;;;;;5088978;28;20256;-92
2023/06/21 05:28:05;;;;;;;18.67;16.63;;;26.50;1.00;;;;;;5085180;28;20203;-93
2023/06/21 05:30:33;;;;;;;20.08;17.88;;;26.40;1.00;;;;;;5093882;28;20192;-93
2023/06/21 05:33:01;;;;;;;19.80;17.70;;;26.20;1.00;;;;;;5093415;28;20232;-93
2023/06/21 05:35:28;;;;;;;19.13;17.23;;;26.20;1.00;;;;;;5081092;28;20750;-94
2023/06/21 05:37:55;;;;;;;20.08;17.98;;;25.90;1.00;;;;;;5082321;28;20204;-93
2023/06/21 05:40:22;;;;;;;19.63;17.63;;;25.60;1.00;;;;;;5084812;28;20204;-92
2023/06/21 05:42:49;;;;;;;18.80;16.90;;;25.40;85.50;;;;;;5084174;28;20227;-93
2023/06/21 05:45:17;;;;;;;21.00;18.67;;;25.20;99.90;;;;;;5090756;28;20229;-92
2023/06/21 05:47:45;;;;;;;24.35;18.05;;;25.00;1.00;;;;;;5093176;28;20195;-93
2023/06/21 05:50:12;;;;;;;22.00;18.40;;;24.80;1.00;;;;;;5096401;28;20207;-93
2023/06/21 05:52:39;;;;;;;20.83;18.73;;;24.60;99.90;;;;;;5096468;28;20228;-93
2023/06/21 05:55:07;;;;;;;24.77;19.33;;;24.40;1.00;;;;;;5083251;28;20220;-94
2023/06/21 05:57:34;;;;;;;31.50;20.17;;;24.30;1.00;;;;;;5103956;28;20191;-94
2023/06/21 06:00:01;;;;;;;25.42;19.85;;;24.20;99.90;;;;;;5092787;28;20718;-95
2023/06/21 06:02:28;;;;;;;27.67;21.33;;;24.00;1.00;;;;;;5080715;28;20205;-94
2023/06/21 06:04:56;;;;;;;29.38;21.30;;;23.80;1.00;;;;;;5085665;28;20647;-94
2023/06/21 06:07:24;;;;;;;25.45;21.92;;;23.70;99.90;;;;;;5084719;28;20326;-94
2023/06/21 06:09:51;;;;;;;24.33;21.55;;;23.60;1.00;;;;;;5093658;28;20246;-92
2023/06/21 06:12:21;;;;;;;32.40;22.95;;;23.50;1.00;;;;;;5079633;28;20241;-93
2023/06/21 06:14:48;;;;;;;26.25;22.30;;;23.30;34.80;;;;;;5079462;28;20303;-93
2023/06/21 06:17:16;;;;;;;28.30;22.75;;;23.30;99.90;;;;;;5093977;28;20211;-92
2023/06/21 06:19:43;;;;;;;29.55;22.65;;;23.20;1.00;;;;;;5087112;28;20261;-92
2023/06/21 06:22:11;;;;;;;27.65;24.08;;;23.20;1.00;;;;;;5086326;28;20191;-92
2023/06/21 06:24:38;;;;;;;25.20;22.38;;;23.20;1.00;;;;;;5092786;28;20269;-91
2023/06/21 06:27:06;;;;;;;25.77;23.00;;;23.30;18.30;;;;;;5074729;28;20266;-91
2023/06/21 06:29:33;;;;;;;24.15;21.52;;;23.40;99.90;;;;;;5084644;28;20211;-91
2023/06/21 06:32:00;;;;;;;24.33;21.58;;;23.60;99.90;;;;;;5085674;28;20242;-91
2023/06/21 06:34:27;;;;;;;25.23;22.55;;;23.90;99.90;;;;;;5082155;28;20193;-90
2023/06/21 06:36:54;;;;;;;27.38;21.52;;;24.30;95.20;;;;;;5072956;28;20649;-91
2023/06/21 06:39:23;;;;;;;24.58;21.73;;;24.70;1.00;;;;;;5091614;28;20187;-91
2023/06/21 06:41:50;;;;;;;24.30;21.75;;;25.10;1.00;;;;;;5100630;28;20754;-91
2023/06/21 06:44:17;;;;;;;23.02;20.73;;;25.50;99.90;;;;;;5097192;28;20264;-91
2023/06/21 06:46:44;;;;;;;21.98;19.75;;;25.90;1.00;;;;;;5096568;28;20649;-91
2023/06/21 06:49:11;;;;;;;23.88;20.17;;;26.20;1.00;;;;;;5093968;28;20248;-91
2023/06/21 06:51:38;;;;;;;22.33;19.98;;;26.40;99.90;;;;;;5095426;28;20188;-91
2023/06/21 06:54:05;;;;;;;22.33;20.02;;;26.50;99.90;;;;;;5103605;28;20631;-90
2023/06/21 06:56:33;;;;;;;24.30;20.92;;;26.60;1.00;;;;;;5103037;28;20622;-91
2023/06/21 06:59:00;;;;;;;23.05;20.63;;;26.60;1.00;;;;;;5088416;28;20204;-90
2023/06/21 07:01:28;;;;;;;22.25;20.05;;;26.80;1.00;;;;;;5095896;28;20192;-91
2023/06/21 07:03:56;;;;;;;22.48;20.35;;;26.80;1.00;;;;;;5086625;28;20245;-91
2023/06/21 07:06:24;;;;;;;23.00;20.70;;;26.70;1.00;;;;;;5082912;28;20198;-90
2023/06/21 07:08:51;;;;;;;23.40;21.10;;;26.70;1.00;;;;;;5090534;28;20190;-91
2023/06/21 07:11:18;;;;;;;22.30;20.13;;;26.70;1.00;;;;;;5089892;28;20203;-91
2023/06/21 07:13:47;;;;;;;23.25;20.85;;;26.80;1.00;;;;;;5091007;28;20633;-91
2023/06/21 07:16:15;;;;;;;22.83;20.42;;;26.80;1.00;;;;;;5097206;28;20227;-91
2023/06/21 07:18:42;;;;;;;23.10;20.80;;;27.00;1.00;;;;;;5095057;28;20192;-91
2023/06/21 07:21:10;;;;;;;22.90;20.60;;;27.10;1.00;;;;;;5095734;28;20195;-91
2023/06/21 07:23:37;;;;;;;23.38;20.90;;;27.30;1.00;;;;;;5103808;28;20203;-92
2023/06/21 07:26:04;;;;;;;23.13;20.92;;;27.40;99.90;;;;;;5087977;28;20251;-91
2023/06/21 07:28:31;;;;;;;21.45;19.15;;;27.50;99.90;;;;;;5087112;28;20715;-91
2023/06/21 07:31:00;;;;;;;21.90;19.70;;;27.60;1.00;;;;;;5097725;28;20192;-92
2023/06/21 07:33:27;;;;;;;22.08;19.80;;;27.60;1.00;;;;;;5082437;28;20195;-91
2023/06/21 07:35:54;;;;;;;23.40;20.92;;;27.60;1.00;;;;;;5101395;28;20292;-92
2023/06/21 07:38:21;;;;;;;22.52;20.33;;;27.60;1.00;;;;;;5099168;28;20192;-92
2023/06/21 07:40:48;;;;;;;21.50;19.50;;;27.50;1.00;;;;;;5084816;28;20211;-91
2023/06/21 07:43:15;;;;;;;23.55;21.25;;;27.50;1.00;;;;;;5099655;28;20269;-92
2023/06/21 07:45:42;;;;;;;22.88;20.50;;;27.30;1.00;;;;;;5104427;28;20200;-92
2023/06/21 07:48:11;;;;;;;23.73;21.13;;;27.30;1.00;;;;;;5080930;28;20649;-93
2023/06/21 07:50:38;;;;;;;24.52;21.90;;;27.30;99.90;;;;;;5102220;28;20714;-92
2023/06/21 07:53:05;;;;;;;24.65;22.02;;;27.40;99.90;;;;;;5086515;28;20250;-92
2023/06/21 07:55:33;;;;;;;23.80;21.50;;;27.40;99.90;;;;;;5091117;28;20219;-91
2023/06/21 07:57:59;;;;;;;33.97;30.50;;;27.40;99.90;;;;;;5095324;28;20245;-91
2023/06/21 08:00:27;;;;;;;25.77;23.15;;;27.40;99.90;;;;;;5083139;28;20187;-92
2023/06/21 08:02:54;;;;;;;25.67;22.98;;;27.50;1.00;;;;;;5104322;28;20209;-91
2023/06/21 08:05:22;;;;;;;25.63;23.08;;;27.60;1.00;;;;;;5098272;28;20274;-91
2023/06/21 08:07:50;;;;;;;25.83;22.98;;;27.70;1.00;;;;;;5095330;28;20644;-91
2023/06/21 08:10:17;;;;;;;27.08;24.33;;;27.80;99.90;;;;;;5092525;28;20219;-88
2023/06/21 08:12:44;;;;;;;24.98;22.38;;;27.90;99.90;;;;;;5083727;28;20233;-91
2023/06/21 08:15:11;;;;;;;25.75;22.77;;;28.00;99.90;;;;;;5092237;28;20196;-90
2023/06/21 08:17:38;;;;;;;26.75;24.02;;;28.10;1.00;;;;;;5097330;28;20249;-90
2023/06/21 08:20:06;;;;;;;25.58;22.95;;;28.00;1.00;;;;;;5092988;28;20661;-91
2023/06/21 08:22:35;;;;;;;25.73;23.20;;;28.00;1.00;;;;;;5095528;28;20192;-89
2023/06/21 08:25:02;;;;;;;25.17;22.65;;;28.10;1.00;;;;;;5095787;28;20260;-90
2023/06/21 08:27:29;;;;;;;28.02;25.20;;;28.20;1.00;;;;;;5097361;28;20194;-90
2023/06/21 08:29:56;;;;;;;24.38;21.83;;;28.40;1.00;;;;;;5093764;28;20612;-90
2023/06/21 08:32:24;;;;;;;23.27;20.90;;;28.40;99.90;;;;;;5097388;28;20199;-90
2023/06/21 08:34:52;;;;;;;21.75;19.65;;;28.20;99.90;;;;;;5096209;28;20199;-90
2023/06/21 08:37:22;;;;;;;21.08;18.88;;;28.10;99.90;;;;;;5092294;28;20310;-90
2023/06/21 08:39:52;;;;;;;19.48;17.30;;;28.10;99.90;;;;;;5099459;28;20191;-90
2023/06/21 08:42:19;;;;;;;18.30;16.48;;;28.00;99.90;;;;;;5080194;28;20761;-91
2023/06/21 08:44:46;;;;;;;15.32;13.73;;;28.00;99.90;;;;;;5097988;28;20194;-91
2023/06/21 08:47:16;;;;;;;16.38;14.68;;;28.00;99.90;;;;;;5094297;28;20248;-90
2023/06/21 08:49:47;;;;;;;19.58;14.70;;;28.10;99.90;;;;;;5087247;28;20736;-91
2023/06/21 08:52:19;;;;;;;15.50;13.90;;;28.10;1.00;;;;;;5095222;28;20245;-91
2023/06/21 08:54:51;;;;;;;18.00;14.55;;;28.10;1.00;;;;;;5097170;28;20188;-90
2023/06/21 08:57:22;;;;;;;15.10;12.40;;;28.20;1.00;;;;;;5097605;28;20257;-88
2023/06/21 08:59:54;;;;;;;16.50;12.77;;;28.30;1.00;;;;;;5099853;28;20199;-88
2023/06/21 09:02:33;;;;;;;15.35;13.65;;;28.40;99.90;;;;;;5094135;28;20252;-88
2023/06/21 09:05:05;;;;;;;15.18;13.68;;;28.40;99.90;;;;;;5094450;28;20194;-88
2023/06/21 09:07:34;;;;;;;16.45;14.68;;;28.50;99.90;;;;;;5096802;28;20223;-88
2023/06/21 09:10:03;;;;;;;18.23;16.33;;;28.60;99.90;;;;;;5096306;28;20244;-88
2023/06/21 09:12:34;;;;;;;21.02;18.08;;;28.80;99.90;;;;;;5080634;28;20274;-88
2023/06/21 09:15:01;;;;;;;22.67;20.48;;;29.10;99.90;;;;;;5096103;28;20284;-88
2023/06/21 09:17:28;;;;;;;22.10;19.63;;;29.50;99.90;;;;;;5091097;28;20223;-89
2023/06/21 09:19:57;;;;;;;23.70;20.73;;;29.90;99.90;;;;;;5085701;28;20612;-88
2023/06/21 09:22:24;;;;;;;23.38;20.98;;;30.40;1.00;;;;;;5095159;28;20613;-89
2023/06/21 09:24:51;;;;;;;24.15;21.58;;;30.70;1.00;;;;;;5094207;28;20199;-88
2023/06/21 09:27:18;;;;;;;25.23;21.73;;;30.80;1.00;;;;;;5099611;28;20203;-89
2023/06/21 09:29:47;;;;;;;22.52;20.30;;;31.10;1.00;;;;;;5094987;28;20199;-89
2023/06/21 09:32:14;;;;;;;23.50;21.30;;;31.40;1.00;;;;;;5093245;28;20195;-89
2023/06/21 09:34:41;;;;;;;23.83;21.42;;;31.60;1.00;;;;;;5090456;28;20193;-89
2023/06/21 09:37:08;;;;;;;24.90;22.13;;;31.70;1.00;;;;;;5093766;28;20276;-88
2023/06/21 09:39:35;;;;;;;25.05;22.65;;;32.00;99.90;;;;;;5097288;28;20195;-88
2023/06/21 09:42:02;;;;;;;25.42;23.02;;;32.20;99.90;;;;;;5094920;28;20227;-88
2023/06/21 09:44:35;;;;;;;25.80;23.30;;;32.40;99.90;;;;;;5095103;28;20204;-88
2023/06/21 09:47:05;;;;;;;25.35;22.67;;;32.30;99.90;;;;;;5084692;28;20220;-89
2023/06/21 09:49:32;;;;;;;48.88;27.50;;;32.40;99.90;;;;;;5087294;28;20192;-89
2023/06/21 09:51:59;;;;;;;26.73;24.00;;;32.50;99.90;;;;;;5098017;28;20610;-89
2023/06/21 09:54:26;;;;;;;28.80;25.75;;;32.60;99.90;;;;;;5093303;28;20249;-89
2023/06/21 09:56:54;;;;;;;30.20;27.05;;;32.60;99.90;;;;;;5079320;28;20277;-89
2023/06/21 09:59:22;;;;;;;27.05;24.38;;;32.60;99.90;;;;;;5093097;28;20204;-87
2023/06/21 10:01:49;;;;;;;27.10;24.50;;;32.40;99.90;;;;;;5093613;28;20206;-89
2023/06/21 10:04:18;;;;;;;26.92;24.33;;;32.30;99.90;;;;;;5091644;28;20256;-88
2023/06/21 10:06:50;;;;;;;25.00;22.48;;;32.30;99.90;;;;;;5082563;28;20208;-89
2023/06/21 10:09:17;;;;;;;25.70;23.10;;;32.40;99.90;;;;;;5090121;28;20600;-89
2023/06/21 10:11:45;;;;;;;27.00;24.50;;;32.70;99.90;;;;;;5098466;28;20199;-88
2023/06/21 10:14:21;;;;;;;25.88;23.38;;;33.00;94.20;;;;;;5093332;28;20188;-89
2023/06/21 10:16:51;;;;;;;26.17;23.63;;;33.10;26.40;;;;;;5096481;28;20222;-88
2023/06/21 10:19:23;;;;;;;25.20;22.80;;;33.20;1.00;;;;;;5100234;28;20257;-88
2023/06/21 10:21:52;;;;;;;26.67;24.27;;;33.10;1.00;;;;;;5106394;28;20192;-88
2023/06/21 10:36:22;;;;;;;22.05;20.02;;;32.90;1.00;;;;;;5056853;28;20534;-89
2023/06/21 10:38:54;;;;;;;22.13;19.92;;;33.50;1.00;;;;;;5042456;28;20197;-90
2023/06/21 10:41:21;;;;;;;20.60;18.52;;;33.80;1.00;;;;;;5046619;28;20197;-91
2023/06/21 10:43:48;;;;;;;20.55;18.63;;;34.10;1.00;;;;;;5044144;28;20221;-90
2023/06/21 10:46:16;;;;;;;21.83;19.63;;;34.40;1.00;;;;;;5042395;28;20585;-90
2023/06/21 10:48:44;;;;;;;20.27;18.27;;;34.60;1.00;;;;;;5045008;28;20204;-91
2023/06/21 10:51:14;;;;;;;20.35;18.25;;;34.60;1.00;;;;;;5044853;28;20201;-91
2023/06/21 10:53:43;;;;;;;20.77;17.67;;;34.60;1.00;;;;;;5045354;28;20204;-90
2023/06/21 10:56:16;;;;;;;19.70;17.83;;;34.40;1.00;;;;;;5045655;28;20193;-91
2023/06/21 10:58:43;;;;;;;20.60;18.50;;;34.20;1.00;;;;;;5038760;28;20225;-91
2023/06/21 11:01:10;;;;;;;20.77;18.88;;;34.00;1.00;;;;;;5046024;28;20685;-92
2023/06/21 11:03:37;;;;;;;21.00;18.98;;;33.60;1.00;;;;;;5042886;28;20193;-92
2023/06/21 11:06:22;;;;;;;19.10;17.35;;;33.20;1.00;;;;;;5044116;27;20196;-91
2023/06/21 11:08:51;;;;;;;19.73;17.92;;;32.60;1.00;;;;;;5049919;28;20204;-91
2023/06/21 11:11:31;;;;;;;19.70;17.80;;;31.90;1.00;;;;;;5046248;28;20190;-91
2023/06/21 11:14:00;;;;;;;20.48;18.50;;;31.10;1.00;;;;;;5039981;28;20193;-91
2023/06/21 11:16:30;;;;;;;19.92;18.02;;;30.60;1.00;;;;;;5045278;28;20197;-91
2023/06/21 11:18:59;;;;;;;20.73;18.73;;;30.30;1.00;;;;;;5044611;28;20201;-91
2023/06/21 11:21:40;;;;;;;20.58;18.55;;;30.30;57.90;;;;;;5041005;28;20202;-90
2023/06/21 11:24:11;;;;;;;19.55;17.77;;;30.50;99.90;;;;;;5049470;28;20213;-91
2023/06/21 11:26:54;;;;;;;20.00;18.20;;;30.80;99.90;;;;;;5042949;28;20197;-91
2023/06/21 11:29:21;;;;;;;19.45;17.55;;;31.10;56.90;;;;;;5040495;28;20201;-91
2023/06/21 11:31:48;;;;;;;20.77;18.88;;;31.30;28.80;;;;;;5046347;28;20208;-91
2023/06/21 11:34:26;;;;;;;19.80;17.92;;;31.40;1.00;;;;;;5041653;28;20226;-91
2023/06/21 11:36:53;;;;;;;19.33;17.35;;;31.30;1.00;;;;;;5023493;28;20824;-92
2023/06/21 11:39:27;;;;;;;20.23;18.25;;;31.40;1.00;;;;;;5029148;28;20202;-91
2023/06/21 11:41:59;;;;;;;19.90;18.00;;;31.50;1.00;;;;;;5032083;28;20207;-91
2023/06/21 11:44:28;;;;;;;19.80;17.80;;;31.70;1.00;;;;;;5032319;28;20224;-91
2023/06/21 11:47:19;;;;;;;18.98;17.17;;;31.90;1.00;;;;;;5031222;28;20659;-91
2023/06/21 11:49:50;;;;;;;18.80;17.00;;;32.20;1.00;;;;;;5030615;28;20680;-91
2023/06/21 11:52:32;;;;;;;19.50;17.70;;;32.60;1.00;;;;;;5033606;28;20230;-90
2023/06/21 11:55:12;;;;;;;21.00;18.80;;;32.70;1.00;;;;;;5024457;28;20198;-91
2023/06/21 11:57:44;;;;;;;21.70;19.58;;;32.40;1.00;;;;;;5039040;28;20206;-91
2023/06/21 12:00:12;;;;;;;21.77;19.67;;;32.00;1.00;;;;;;5028368;28;20205;-91
2023/06/21 12:02:39;;;;;;;21.55;19.55;;;31.80;1.00;;;;;;5029241;28;20202;-90
2023/06/21 12:05:06;;;;;;;21.88;19.50;;;31.50;1.00;;;;;;5028849;28;20221;-91
2023/06/21 12:07:33;;;;;;;23.30;18.98;;;31.30;1.00;;;;;;5029323;28;20680;-89
2023/06/21 12:10:01;;;;;;;20.25;18.25;;;31.20;1.00;;;;;;5030224;28;20198;-91
2023/06/21 12:12:28;;;;;;;20.08;18.27;;;31.00;1.00;;;;;;5042653;28;20662;-91
2023/06/21 12:14:58;;;;;;;19.90;18.02;;;30.90;1.00;;;;;;5029000;28;20221;-90
2023/06/21 12:17:25;;;;;;;20.45;18.55;;;31.00;1.00;;;;;;5031306;28;20247;-91
2023/06/21 12:19:51;;;;;;;20.83;18.67;;;31.00;1.00;;;;;;5020740;28;20565;-91
2023/06/21 12:22:23;;;;;;;19.42;17.70;;;30.90;1.00;;;;;;5030932;28;20206;-91
2023/06/21 12:24:52;;;;;;;21.75;19.63;;;30.80;1.00;;;;;;5039722;28;20218;-91
2023/06/21 12:27:20;;;;;;;20.80;18.63;;;30.80;1.00;;;;;;5037746;28;20202;-91
2023/06/21 12:29:48;;;;;;;20.25;18.25;;;30.70;1.00;;;;;;5028871;28;20232;-91
2023/06/21 12:32:15;;;;;;;20.70;18.70;;;30.60;1.00;;;;;;5031939;28;20198;-91
2023/06/21 12:34:42;;;;;;;19.52;17.63;;;30.50;1.00;;;;;;5025107;28;20213;-91
2023/06/21 12:37:09;;;;;;;20.10;18.27;;;30.70;1.00;;;;;;5027684;28;20682;-91
2023/06/21 12:39:39;;;;;;;18.27;16.50;;;30.70;1.00;;;;;;5041148;28;20193;-91
2023/06/21 12:42:06;;;;;;;16.42;14.82;;;30.70;1.00;;;;;;5029576;28;20198;-91
2023/06/21 12:44:34;;;;;;;17.25;15.55;;;30.70;1.00;;;;;;5038018;28;20301;-91
2023/06/21 12:47:01;;;;;;;17.55;15.93;;;30.80;1.00;;;;;;5031143;28;20196;-91
2023/06/21 12:49:29;;;;;;;18.20;16.40;;;30.80;1.00;;;;;;5035094;28;20205;-91
2023/06/21 12:51:55;;;;;;;18.45;16.58;;;31.00;1.00;;;;;;5038261;28;20251;-91